createdAt,value
2023-02-22T00:01:07.544Z,18.77
2023-02-22T00:03:35.204Z,19.17
2023-02-22T00:06:05.384Z,20.17
2023-02-22T00:08:37.529Z,19.73
2023-02-22T00:11:10.655Z,21.63
2023-02-22T00:13:38.632Z,21.10
2023-02-22T00:16:07.104Z,16.83
2023-02-22T00:18:35.343Z,20.23
2023-02-22T00:21:03.142Z,20.02
2023-02-22T00:23:31.986Z,19.85
2023-02-22T00:26:01.204Z,23.33
2023-02-22T00:28:30.737Z,21.60
2023-02-22T00:30:59.942Z,20.13
2023-02-22T00:33:27.602Z,20.42
2023-02-22T00:35:55.068Z,18.02
2023-02-22T00:38:22.785Z,21.42
2023-02-22T00:40:50.345Z,18.13
2023-02-22T00:43:17.926Z,21.67
2023-02-22T00:45:45.509Z,19.83
2023-02-22T00:48:13.489Z,20.48
2023-02-22T00:50:41.471Z,20.90
2023-02-22T00:53:11.587Z,21.15
2023-02-22T00:55:39.361Z,18.92
2023-02-22T00:58:08.199Z,18.77
2023-02-22T01:00:39.111Z,17.60
2023-02-22T01:03:10.604Z,22.05
2023-02-22T01:05:39.116Z,19.88
2023-02-22T01:08:09.000Z,17.53
2023-02-22T01:10:37.925Z,21.70
2023-02-22T01:13:09.192Z,20.02
2023-02-22T01:15:39.373Z,21.17
2023-02-22T01:18:07.289Z,20.60
2023-02-22T01:20:35.362Z,20.00
2023-02-22T01:23:06.794Z,15.40
2023-02-22T01:25:35.544Z,21.58
2023-02-22T01:28:05.625Z,21.15
2023-02-22T01:30:35.068Z,21.30
2023-02-22T01:33:05.302Z,18.50
2023-02-22T01:35:37.097Z,20.75
2023-02-22T01:38:04.774Z,21.33
2023-02-22T01:40:39.046Z,20.98
2023-02-22T01:43:20.942Z,20.38
2023-02-22T01:46:19.017Z,20.90
2023-02-22T01:48:52.039Z,22.95
2023-02-22T01:51:26.973Z,19.98
2023-02-22T01:53:59.243Z,22.58
2023-02-22T01:56:30.580Z,17.75
2023-02-22T01:59:03.360Z,23.13
2023-02-22T02:01:31.114Z,18.33
2023-02-22T02:04:02.631Z,20.85
2023-02-22T02:06:33.614Z,23.08
2023-02-22T02:09:23.446Z,21.80
2023-02-22T02:11:51.414Z,19.38
2023-02-22T02:14:19.307Z,18.88
2023-02-22T02:16:51.384Z,18.85
2023-02-22T02:19:32.480Z,19.90
2023-02-22T02:22:10.959Z,18.65
2023-02-22T02:25:21.312Z,19.33
2023-02-22T02:28:14.488Z,21.95
2023-02-22T02:31:04.042Z,19.05
2023-02-22T02:33:38.836Z,20.55
2023-02-22T02:36:21.640Z,19.08
2023-02-22T02:38:58.114Z,18.77
2023-02-22T02:41:32.405Z,20.17
2023-02-22T02:44:02.119Z,20.23
2023-02-22T02:46:43.409Z,20.52
2023-02-22T02:49:15.266Z,21.73
2023-02-22T02:51:49.449Z,20.02
2023-02-22T02:54:19.354Z,19.80
2023-02-22T02:56:47.620Z,19.17
2023-02-22T02:59:28.747Z,16.35
2023-02-22T03:02:40.334Z,21.60
2023-02-22T03:05:17.044Z,18.10
2023-02-22T03:08:13.799Z,20.63
2023-02-22T03:10:56.187Z,18.92
2023-02-22T03:13:52.931Z,19.58
2023-02-22T03:16:44.453Z,21.08
2023-02-22T03:19:35.056Z,20.52
2023-02-22T03:22:14.647Z,19.00
2023-02-22T03:25:04.955Z,20.33
2023-02-22T03:27:48.487Z,23.42
2023-02-22T03:30:37.970Z,20.70
2023-02-22T03:33:10.738Z,21.45
2023-02-22T03:35:45.153Z,21.15
2023-02-22T03:38:19.168Z,20.15
2023-02-22T03:40:51.202Z,19.50
2023-02-22T03:43:31.754Z,22.75
2023-02-22T03:46:01.894Z,20.88
2023-02-22T03:48:36.041Z,21.63
2023-02-22T03:51:04.603Z,21.25
2023-02-22T03:53:34.751Z,20.20
2023-02-22T03:56:07.392Z,19.67
2023-02-22T03:58:37.831Z,19.52
2023-02-22T04:01:05.607Z,20.80
2023-02-22T04:03:33.080Z,20.90
2023-02-22T04:06:00.632Z,22.40
2023-02-22T04:08:28.336Z,20.45
2023-02-22T04:10:56.112Z,18.27
2023-02-22T04:13:23.882Z,23.98
2023-02-22T04:15:51.619Z,22.55
2023-02-22T04:18:19.474Z,19.42
2023-02-22T04:20:47.119Z,18.75
2023-02-22T04:23:15.060Z,22.55
2023-02-22T04:25:42.595Z,19.30
2023-02-22T04:28:10.399Z,23.25
2023-02-22T04:30:37.948Z,23.73
2023-02-22T04:33:05.717Z,23.73
2023-02-22T04:35:35.468Z,21.02
2023-02-22T04:38:04.366Z,24.50
2023-02-22T04:40:32.244Z,23.23
2023-02-22T04:43:00.342Z,16.07
2023-02-22T04:45:28.063Z,20.13
2023-02-22T04:47:55.796Z,22.98
2023-02-22T04:50:25.553Z,22.17
2023-02-22T04:52:53.985Z,21.83
2023-02-22T04:55:22.496Z,22.52
2023-02-22T04:57:50.287Z,23.17
2023-02-22T05:00:21.900Z,20.23
2023-02-22T05:02:51.489Z,24.40
2023-02-22T05:05:24.382Z,21.65
2023-02-22T05:07:52.650Z,19.98
2023-02-22T05:10:20.724Z,16.27
2023-02-22T05:12:48.608Z,17.10
2023-02-22T05:15:18.719Z,19.65
2023-02-22T05:17:46.653Z,21.40
2023-02-22T05:20:22.438Z,23.25
2023-02-22T05:22:51.939Z,23.67
2023-02-22T05:25:20.452Z,22.42
2023-02-22T05:27:57.344Z,22.08
2023-02-22T05:30:31.144Z,19.40
2023-02-22T05:33:00.757Z,21.50
2023-02-22T05:35:29.493Z,23.77
2023-02-22T05:37:59.753Z,21.95
2023-02-22T05:40:28.226Z,22.10
2023-02-22T05:42:57.706Z,21.52
2023-02-22T05:45:28.008Z,21.00
2023-02-22T05:47:56.663Z,22.23
2023-02-22T05:50:26.473Z,20.30
2023-02-22T05:52:54.941Z,18.88
2023-02-22T05:55:23.752Z,22.10
2023-02-22T05:57:52.517Z,19.60
2023-02-22T06:00:24.338Z,18.20
2023-02-22T06:02:59.930Z,17.38
2023-02-22T06:05:28.956Z,19.30
2023-02-22T06:07:57.978Z,17.90
2023-02-22T06:10:27.973Z,16.73
2023-02-22T06:12:57.558Z,18.13
2023-02-22T06:15:27.002Z,16.67
2023-02-22T06:17:55.891Z,20.08
2023-02-22T06:20:28.076Z,21.52
2023-02-22T06:22:57.781Z,18.17
2023-02-22T06:25:28.611Z,18.77
2023-02-22T06:27:56.317Z,15.93
2023-02-22T06:30:25.693Z,19.77
2023-02-22T06:32:53.878Z,19.08
2023-02-22T06:35:22.511Z,13.60
2023-02-22T06:37:50.379Z,16.63
2023-02-22T06:40:18.069Z,17.50
2023-02-22T06:42:49.282Z,14.82
2023-02-22T06:45:18.351Z,19.45
2023-02-22T06:47:46.123Z,16.63
2023-02-22T06:50:22.581Z,19.25
2023-02-22T06:52:50.685Z,21.63
2023-02-22T06:55:23.737Z,16.50
2023-02-22T06:57:51.953Z,19.23
2023-02-22T07:00:22.855Z,21.83
2023-02-22T07:02:51.106Z,19.20
2023-02-22T07:05:20.917Z,17.55
2023-02-22T07:07:49.969Z,22.23
2023-02-22T07:10:23.230Z,20.30
2023-02-22T07:12:52.581Z,20.52
2023-02-22T07:15:24.734Z,19.80
2023-02-22T07:17:52.750Z,20.63
2023-02-22T07:20:22.074Z,16.13
2023-02-22T07:22:50.306Z,19.15
2023-02-22T07:25:19.071Z,19.50
2023-02-22T07:27:47.235Z,20.73
2023-02-22T07:30:34.045Z,18.05
2023-02-22T07:33:04.384Z,18.30
2023-02-22T07:35:37.901Z,22.40
2023-02-22T07:38:10.415Z,30.20
2023-02-22T07:40:38.753Z,19.70
2023-02-22T07:43:20.845Z,22.33
2023-02-22T07:45:50.075Z,22.02
2023-02-22T07:48:19.535Z,20.70
2023-02-22T07:50:47.754Z,20.55
2023-02-22T07:53:25.858Z,20.17
2023-02-22T07:55:55.359Z,18.83
2023-02-22T07:58:25.207Z,18.27
2023-02-22T08:00:53.451Z,19.40
2023-02-22T08:03:23.504Z,20.88
2023-02-22T08:05:53.925Z,19.33
2023-02-22T08:08:21.840Z,21.02
2023-02-22T08:10:50.589Z,22.50
2023-02-22T08:15:47.323Z,19.90
2023-02-22T08:18:18.323Z,15.80
2023-02-22T08:20:47.762Z,22.05
2023-02-22T08:23:16.983Z,22.58
2023-02-22T08:25:44.826Z,20.85
2023-02-22T08:28:19.972Z,20.85
2023-02-22T08:30:48.250Z,21.17
2023-02-22T08:33:19.398Z,16.92
2023-02-22T08:35:49.736Z,18.30
2023-02-22T08:38:29.157Z,23.58
2023-02-22T08:40:57.814Z,20.75
2023-02-22T08:43:26.381Z,21.08
2023-02-22T08:45:56.857Z,19.85
2023-02-22T08:48:25.621Z,22.95
2023-02-22T08:50:53.665Z,18.05
2023-02-22T08:53:21.669Z,20.55
2023-02-22T08:55:49.864Z,20.92
2023-02-22T08:58:17.792Z,18.67
2023-02-22T09:00:45.704Z,23.73
2023-02-22T09:03:15.537Z,15.80
2023-02-22T09:05:44.647Z,25.40
2023-02-22T09:08:13.072Z,16.63
2023-02-22T09:10:40.859Z,16.83
2023-02-22T09:13:08.964Z,17.23
2023-02-22T09:15:36.970Z,17.02
2023-02-22T09:18:08.424Z,20.40
2023-02-22T09:20:37.014Z,15.73
2023-02-22T09:23:06.617Z,17.25
2023-02-22T09:25:34.528Z,16.92
2023-02-22T09:28:02.433Z,18.35
2023-02-22T09:30:35.641Z,18.00
2023-02-22T09:33:15.249Z,19.48
2023-02-22T09:35:47.501Z,20.10
2023-02-22T09:38:22.850Z,19.65
2023-02-22T09:40:54.431Z,24.45
2023-02-22T09:43:40.629Z,19.50
2023-02-22T09:46:28.085Z,20.10
2023-02-22T09:49:14.005Z,13.80
2023-02-22T09:51:55.643Z,19.73
2023-02-22T09:54:30.304Z,17.13
2023-02-22T09:57:02.419Z,17.95
2023-02-22T09:59:37.422Z,15.90
2023-02-22T10:02:30.257Z,18.95
2023-02-22T10:05:13.880Z,16.08
2023-02-22T10:07:51.547Z,18.20
2023-02-22T10:10:24.634Z,19.77
2023-02-22T10:13:00.393Z,17.83
2023-02-22T10:15:28.188Z,17.52
2023-02-22T10:18:25.919Z,18.92
2023-02-22T10:21:16.333Z,14.13
2023-02-22T10:23:43.975Z,19.08
2023-02-22T10:26:12.666Z,16.27
2023-02-22T10:31:28.533Z,19.27
2023-02-22T10:34:01.046Z,18.23
2023-02-22T10:36:29.234Z,17.42
2023-02-22T10:39:02.227Z,18.58
2023-02-22T10:41:32.470Z,16.85
2023-02-22T10:44:02.305Z,15.65
2023-02-22T10:46:33.289Z,17.80
2023-02-22T10:49:07.090Z,18.02
2023-02-22T10:51:35.785Z,19.05
2023-02-22T10:54:09.215Z,12.43
2023-02-22T10:56:56.307Z,18.25
2023-02-22T10:59:36.305Z,24.23
2023-02-22T11:02:20.716Z,19.13
2023-02-22T11:04:53.392Z,19.67
2023-02-22T11:07:27.253Z,20.23
2023-02-22T11:10:01.210Z,16.92
2023-02-22T11:12:32.152Z,15.90
2023-02-22T11:15:22.332Z,13.77
2023-02-22T11:17:52.400Z,13.98
2023-02-22T11:20:28.719Z,14.88
2023-02-22T11:23:01.153Z,18.83
2023-02-22T11:25:38.583Z,19.00
2023-02-22T11:28:30.917Z,15.55
2023-02-22T11:31:17.679Z,15.45
2023-02-22T11:33:59.676Z,15.60
2023-02-22T11:36:43.145Z,15.35
2023-02-22T11:39:27.160Z,20.13
2023-02-22T11:41:58.113Z,15.23
2023-02-22T11:44:29.952Z,16.77
2023-02-22T11:47:06.835Z,13.52
2023-02-22T11:49:38.461Z,15.35
2023-02-22T11:52:28.316Z,43.20
2023-02-22T11:55:32.608Z,16.83
2023-02-22T11:58:26.439Z,17.70
2023-02-22T12:01:29.923Z,16.02
2023-02-22T12:04:25.507Z,12.38
2023-02-22T12:07:15.463Z,15.18
2023-02-22T12:09:49.334Z,15.02
2023-02-22T12:12:51.534Z,15.38
2023-02-22T12:15:48.372Z,13.85
2023-02-22T12:18:22.218Z,20.10
2023-02-22T12:21:01.898Z,14.43
2023-02-22T12:23:50.781Z,15.10
2023-02-22T12:26:26.071Z,17.58
2023-02-22T12:29:25.797Z,15.35
2023-02-22T12:31:53.507Z,17.75
2023-02-22T12:34:41.349Z,16.67
2023-02-22T12:37:16.199Z,14.90
2023-02-22T12:39:56.400Z,14.60
2023-02-22T12:42:41.978Z,17.13
2023-02-22T12:45:21.308Z,15.85
2023-02-22T12:48:07.321Z,15.82
2023-02-22T12:50:37.730Z,15.25
2023-02-22T12:53:16.600Z,16.83
2023-02-22T12:55:54.153Z,19.00
2023-02-22T12:58:31.325Z,19.65
2023-02-22T13:01:05.867Z,15.90
2023-02-22T13:03:36.188Z,16.20
2023-02-22T13:06:25.145Z,15.35
2023-02-22T13:09:08.988Z,15.57
2023-02-22T13:11:48.962Z,19.30
2023-02-22T13:14:50.679Z,16.05
2023-02-22T13:17:48.622Z,15.05
2023-02-22T13:20:18.767Z,17.85
2023-02-22T13:23:14.059Z,14.68
2023-02-22T13:25:48.404Z,31.20
2023-02-22T13:28:29.226Z,19.60
2023-02-22T13:31:00.065Z,18.33
2023-02-22T13:33:42.977Z,16.92
2023-02-22T13:36:29.101Z,17.58
2023-02-22T13:39:19.896Z,16.52
2023-02-22T13:42:06.600Z,16.05
2023-02-22T13:44:59.950Z,16.52
2023-02-22T13:47:49.827Z,15.68
2023-02-22T13:50:34.206Z,15.95
2023-02-22T13:53:05.525Z,18.55
2023-02-22T13:55:35.693Z,22.38
2023-02-22T13:58:06.538Z,20.20
2023-02-22T14:00:41.782Z,16.35
2023-02-22T14:03:14.925Z,18.95
2023-02-22T14:05:42.659Z,17.75
2023-02-22T14:08:19.226Z,14.52
2023-02-22T14:11:00.775Z,15.52
2023-02-22T14:13:33.380Z,13.90
2023-02-22T14:16:00.907Z,15.90
2023-02-22T14:18:44.572Z,16.42
2023-02-22T14:21:20.444Z,16.98
2023-02-22T14:23:53.986Z,37.92
2023-02-22T14:26:27.823Z,31.20
2023-02-22T14:29:02.892Z,23.30
2023-02-22T14:31:37.012Z,33.53
2023-02-22T14:34:13.904Z,17.73
2023-02-22T14:37:14.182Z,26.85
2023-02-22T14:40:02.395Z,30.45
2023-02-22T14:42:30.240Z,25.63
2023-02-22T14:45:03.414Z,19.55
2023-02-22T14:47:40.016Z,23.10
2023-02-22T14:50:16.583Z,20.75
2023-02-22T14:52:48.721Z,27.42
2023-02-22T14:55:21.361Z,21.58
2023-02-22T14:58:01.376Z,21.92
2023-02-22T15:00:52.694Z,23.00
2023-02-22T15:03:33.336Z,19.15
2023-02-22T15:06:06.105Z,18.52
2023-02-22T15:08:34.481Z,20.55
2023-02-22T15:11:02.414Z,16.65
2023-02-22T15:13:34.370Z,17.40
2023-02-22T15:16:04.562Z,17.40
2023-02-22T15:18:56.578Z,19.45
2023-02-22T15:21:27.095Z,24.27
2023-02-22T15:23:58.425Z,25.77
2023-02-22T15:26:37.337Z,21.45
2023-02-22T15:29:14.832Z,22.20
2023-02-22T15:31:48.296Z,21.73
2023-02-22T15:34:16.280Z,23.05
2023-02-22T15:36:47.086Z,19.00
2023-02-22T15:39:34.278Z,26.45
2023-02-22T15:42:10.559Z,33.67
2023-02-22T15:44:42.754Z,30.35
2023-02-22T15:47:19.603Z,29.83
2023-02-22T15:50:26.157Z,31.30
2023-02-22T15:53:02.043Z,31.75
2023-02-22T15:55:38.080Z,28.33
2023-02-22T15:58:23.770Z,30.38
2023-02-22T16:01:02.342Z,25.48
2023-02-22T16:03:44.923Z,24.33
2023-02-22T16:06:40.441Z,25.35
2023-02-22T16:09:15.252Z,46.70
2023-02-22T16:11:45.912Z,34.38
2023-02-22T16:14:25.352Z,24.70
2023-02-22T16:17:14.030Z,24.75
2023-02-22T16:19:45.043Z,25.73
2023-02-22T16:22:33.879Z,24.60
2023-02-22T16:27:47.806Z,28.73
2023-02-22T16:30:24.528Z,30.50
2023-02-22T16:32:56.690Z,32.85
2023-02-22T16:35:29.217Z,34.78
2023-02-22T16:38:14.847Z,33.15
2023-02-22T16:40:50.582Z,50.80
2023-02-22T16:43:21.694Z,49.22
2023-02-22T16:45:49.379Z,44.50
2023-02-22T16:48:29.989Z,37.97
2023-02-22T16:51:02.568Z,51.92
2023-02-22T16:53:32.825Z,33.75
2023-02-22T16:56:05.576Z,33.22
2023-02-22T16:58:36.705Z,29.42
2023-02-22T17:01:04.925Z,25.98
2023-02-22T17:03:32.777Z,22.40
2023-02-22T17:06:00.369Z,51.75
2023-02-22T17:08:28.130Z,100.90
2023-02-22T17:10:57.653Z,76.95
2023-02-22T17:13:27.581Z,53.92
2023-02-22T17:15:56.574Z,45.13
2023-02-22T17:18:28.665Z,47.05
2023-02-22T17:20:56.993Z,40.65
2023-02-22T17:23:25.010Z,38.25
2023-02-22T17:25:55.118Z,44.75
2023-02-22T17:28:24.654Z,40.22
2023-02-22T17:30:54.648Z,35.63
2023-02-22T17:33:26.836Z,34.38
2023-02-22T17:35:57.727Z,45.30
2023-02-22T17:38:28.858Z,42.58
2023-02-22T17:40:58.126Z,49.42
2023-02-22T17:43:30.562Z,43.85
2023-02-22T17:45:58.432Z,51.17
2023-02-22T17:48:26.469Z,55.38
2023-02-22T17:50:54.070Z,58.95
2023-02-22T17:53:24.781Z,56.65
2023-02-22T17:55:52.792Z,44.45
2023-02-22T17:58:20.671Z,41.92
2023-02-22T18:00:50.162Z,53.25
2023-02-22T18:03:24.905Z,45.13
2023-02-22T18:05:56.284Z,45.30
2023-02-22T18:08:25.945Z,45.45
2023-02-22T18:10:56.540Z,49.55
2023-02-22T18:13:27.472Z,43.50
2023-02-22T18:16:00.490Z,40.45
2023-02-22T18:18:28.810Z,39.97
2023-02-22T18:20:59.848Z,31.98
2023-02-22T18:23:30.727Z,35.92
2023-02-22T18:26:10.855Z,40.50
2023-02-22T18:28:39.677Z,38.25
2023-02-22T18:31:10.386Z,41.65
2023-02-22T18:33:37.956Z,38.00
2023-02-22T18:36:06.308Z,42.42
2023-02-22T18:38:34.499Z,40.92
2023-02-22T18:41:06.529Z,39.10
2023-02-22T18:43:36.702Z,41.65
2023-02-22T18:48:46.036Z,37.45
2023-02-22T18:51:17.485Z,41.20
2023-02-22T18:53:47.744Z,45.40
2023-02-22T18:56:21.993Z,41.33
2023-02-22T18:58:58.723Z,38.28
2023-02-22T19:01:27.024Z,40.85
2023-02-22T19:03:55.730Z,31.75
2023-02-22T19:06:23.574Z,29.67
2023-02-22T19:08:51.727Z,41.92
2023-02-22T19:11:23.095Z,26.25
2023-02-22T19:13:53.973Z,36.17
2023-02-22T19:16:23.673Z,44.92
2023-02-22T19:18:57.092Z,46.78
2023-02-22T19:21:28.151Z,42.05
2023-02-22T19:23:56.418Z,55.83
2023-02-22T19:26:26.718Z,36.10
2023-02-22T19:28:56.529Z,49.45
2023-02-22T19:31:26.705Z,49.53
2023-02-22T19:34:09.097Z,46.38
2023-02-22T19:36:39.237Z,48.72
2023-02-22T19:39:07.821Z,43.35
2023-02-22T19:44:05.357Z,44.58
2023-02-22T19:46:33.868Z,39.08
2023-02-22T19:49:02.665Z,40.33
2023-02-22T19:54:05.049Z,41.88
2023-02-22T19:56:35.426Z,38.25
2023-02-22T19:59:12.945Z,37.28
2023-02-22T20:01:44.417Z,41.53
2023-02-22T20:04:18.853Z,42.53
2023-02-22T20:06:50.765Z,42.03
2023-02-22T20:09:21.494Z,45.72
2023-02-22T20:11:51.875Z,48.28
2023-02-22T20:14:24.241Z,44.17
2023-02-22T20:16:53.971Z,45.75
2023-02-22T20:19:24.829Z,39.10
2023-02-22T20:21:55.807Z,42.40
2023-02-22T20:24:24.849Z,39.30
2023-02-22T20:26:55.868Z,36.20
2023-02-22T20:29:29.530Z,36.53
2023-02-22T20:32:02.705Z,36.53
2023-02-22T20:34:32.551Z,47.15
2023-02-22T20:37:01.228Z,50.05
2023-02-22T20:39:29.486Z,46.78
2023-02-22T20:42:00.590Z,50.70
2023-02-22T20:44:28.483Z,58.50
2023-02-22T20:46:56.556Z,45.63
2023-02-22T20:49:24.883Z,48.20
2023-02-22T20:51:52.750Z,38.55
2023-02-22T20:54:20.588Z,40.13
2023-02-22T20:56:48.408Z,31.52
2023-02-22T20:59:18.582Z,39.50
2023-02-22T21:01:50.238Z,40.05
2023-02-22T21:04:18.827Z,37.20
2023-02-22T21:06:48.073Z,35.28
2023-02-22T21:09:19.808Z,35.47
2023-02-22T21:11:49.098Z,31.98
2023-02-22T21:14:20.491Z,31.50
2023-02-22T21:16:50.976Z,32.85
2023-02-22T21:19:26.495Z,31.70
2023-02-22T21:21:56.885Z,31.73
2023-02-22T21:24:28.997Z,31.05
2023-02-22T21:27:00.302Z,37.85
2023-02-22T21:29:29.258Z,36.25
2023-02-22T21:34:25.983Z,30.98
2023-02-22T21:36:54.339Z,33.60
2023-02-22T21:39:22.684Z,28.23
2023-02-22T21:41:52.183Z,24.13
2023-02-22T21:44:20.416Z,28.70
2023-02-22T21:46:49.904Z,26.80
2023-02-22T21:49:22.712Z,29.45
2023-02-22T21:51:51.853Z,26.05
2023-02-22T21:56:47.914Z,26.02
2023-02-22T21:59:20.897Z,24.98
2023-02-22T22:01:51.392Z,29.35
2023-02-22T22:04:21.548Z,26.02
2023-02-22T22:06:54.081Z,25.17
2023-02-22T22:09:23.630Z,19.15
2023-02-22T22:11:53.945Z,22.70
2023-02-22T22:14:24.223Z,30.00
2023-02-22T22:16:54.305Z,27.17
2023-02-22T22:19:22.901Z,26.75
2023-02-22T22:21:53.467Z,24.50
2023-02-22T22:24:22.766Z,37.85
2023-02-22T22:26:54.617Z,32.53
2023-02-22T22:29:24.873Z,25.70
2023-02-22T22:31:52.676Z,20.77
2023-02-22T22:34:24.344Z,15.35
2023-02-22T22:36:52.754Z,17.15
2023-02-22T22:39:21.071Z,16.08
2023-02-22T22:41:49.039Z,21.05
2023-02-22T22:44:22.295Z,19.33
2023-02-22T22:46:53.747Z,18.23
2023-02-22T22:49:23.532Z,18.13
2023-02-22T22:51:51.242Z,19.45
2023-02-22T22:54:18.972Z,20.47
2023-02-22T22:56:46.546Z,19.35
2023-02-22T22:59:15.308Z,18.23
2023-02-22T23:01:47.310Z,19.77
2023-02-22T23:04:16.739Z,21.02
2023-02-22T23:06:46.670Z,19.33
2023-02-22T23:09:19.512Z,16.85
2023-02-22T23:12:08.645Z,17.15
2023-02-22T23:14:44.003Z,17.63
2023-02-22T23:17:30.898Z,14.80
2023-02-22T23:19:59.004Z,18.17
2023-02-22T23:22:27.910Z,17.95
2023-02-22T23:24:55.325Z,18.08
2023-02-22T23:27:23.812Z,16.63
2023-02-22T23:29:52.522Z,17.13
2023-02-22T23:32:20.205Z,18.65
2023-02-22T23:34:49.697Z,16.95
2023-02-22T23:37:20.661Z,18.35
2023-02-22T23:39:48.951Z,15.15
2023-02-22T23:42:16.898Z,13.25
2023-02-22T23:44:46.178Z,13.57
2023-02-22T23:47:16.042Z,13.30
2023-02-22T23:49:49.345Z,15.55
2023-02-22T23:52:24.114Z,14.88
2023-02-22T23:54:53.915Z,15.00
2023-02-22T23:57:21.684Z,15.80
2023-02-22T23:59:51.447Z,12.48
